createdAt,value
2018-10-11T00:00:25.346Z,9.41
2018-10-11T00:02:54.428Z,9.40
2018-10-11T00:05:23.212Z,9.37
2018-10-11T00:07:52.054Z,9.37
2018-10-11T00:10:20.909Z,9.35
2018-10-11T00:12:50.014Z,9.34
2018-10-11T00:15:19.518Z,9.35
2018-10-11T00:17:48.378Z,9.34
2018-10-11T00:20:17.151Z,9.31
2018-10-11T00:22:46.138Z,9.31
2018-10-11T00:25:14.876Z,9.33
2018-10-11T00:27:43.642Z,9.33
2018-10-11T00:30:12.477Z,9.25
2018-10-11T00:32:41.672Z,9.22
2018-10-11T00:35:10.341Z,9.21
2018-10-11T00:37:39.130Z,9.23
2018-10-11T00:40:09.266Z,9.23
2018-10-11T00:42:38.327Z,9.22
2018-10-11T00:45:07.157Z,9.21
2018-10-11T00:47:35.876Z,9.22
2018-10-11T00:50:04.620Z,9.23
2018-10-11T00:52:33.657Z,9.23
2018-10-11T00:55:02.356Z,9.22
2018-10-11T00:57:31.079Z,9.23
2018-10-11T01:00:00.085Z,9.22
2018-10-11T01:02:28.773Z,9.24
2018-10-11T01:04:57.535Z,9.21
2018-10-11T01:07:26.341Z,9.20
2018-10-11T01:09:55.753Z,9.18
2018-10-11T01:12:24.641Z,9.17
2018-10-11T01:14:53.244Z,9.18
2018-10-11T01:17:22.479Z,9.17
2018-10-11T01:19:51.453Z,9.18
2018-10-11T01:22:20.606Z,9.18
2018-10-11T01:24:49.478Z,9.17
2018-10-11T01:27:18.297Z,9.20
2018-10-11T01:29:47.291Z,9.23
2018-10-11T01:32:16.376Z,9.24
2018-10-11T01:34:45.406Z,9.26
2018-10-11T01:37:14.294Z,9.24
2018-10-11T01:39:43.228Z,9.24
2018-10-11T01:42:11.953Z,9.24
2018-10-11T01:44:41.179Z,9.24
2018-10-11T01:47:10.380Z,9.24
2018-10-11T01:49:39.171Z,9.27
2018-10-11T01:52:08.026Z,9.24
2018-10-11T01:54:37.005Z,9.21
2018-10-11T01:57:05.985Z,9.18
2018-10-11T01:59:34.937Z,9.18
2018-10-11T02:02:04.055Z,9.17
2018-10-11T02:04:32.718Z,9.18
2018-10-11T02:07:01.682Z,9.18
2018-10-11T02:09:30.499Z,9.15
2018-10-11T02:11:59.426Z,9.15
2018-10-11T02:14:28.304Z,9.14
2018-10-11T02:16:57.105Z,9.13
2018-10-11T02:19:25.893Z,9.12
2018-10-11T02:21:54.809Z,9.13
2018-10-11T02:24:23.852Z,9.15
2018-10-11T02:26:52.571Z,9.18
2018-10-11T02:29:21.447Z,9.22
2018-10-11T02:31:50.315Z,9.24
2018-10-11T02:34:19.322Z,9.25
2018-10-11T02:36:47.949Z,9.26
2018-10-11T02:39:16.649Z,9.28
2018-10-11T02:41:45.258Z,9.33
2018-10-11T02:44:14.021Z,9.34
2018-10-11T02:46:42.866Z,9.25
2018-10-11T02:49:11.709Z,9.17
2018-10-11T02:51:40.472Z,9.18
2018-10-11T02:54:09.367Z,9.18
2018-10-11T02:56:38.122Z,9.19
2018-10-11T02:59:17.791Z,9.19
2018-10-11T03:01:46.655Z,9.18
2018-10-11T03:04:15.616Z,9.17
2018-10-11T03:06:44.466Z,9.17
2018-10-11T03:09:13.285Z,9.17
2018-10-11T03:11:42.018Z,9.18
2018-10-11T03:14:10.788Z,9.22
2018-10-11T03:16:39.469Z,9.22
2018-10-11T03:19:08.246Z,9.23
2018-10-11T03:21:37.300Z,9.25
2018-10-11T03:24:05.951Z,9.26
2018-10-11T03:26:34.836Z,9.26
2018-10-11T03:29:03.621Z,9.25
2018-10-11T03:31:32.455Z,9.25
2018-10-11T03:34:01.115Z,9.23
2018-10-11T03:36:30.060Z,9.22
2018-10-11T03:38:58.686Z,9.19
2018-10-11T03:41:27.317Z,9.18
2018-10-11T03:43:56.162Z,9.17
2018-10-11T03:46:24.868Z,9.19
2018-10-11T03:48:53.592Z,9.16
2018-10-11T03:51:22.362Z,9.16
2018-10-11T03:53:51.008Z,9.15
2018-10-11T03:56:20.170Z,9.10
2018-10-11T03:58:48.993Z,9.07
2018-10-11T04:01:17.865Z,9.08
2018-10-11T04:03:46.486Z,9.07
2018-10-11T04:06:15.157Z,9.03
2018-10-11T04:08:43.749Z,9.04
2018-10-11T04:11:12.486Z,9.03
2018-10-11T04:13:41.185Z,9.03
2018-10-11T04:16:09.957Z,9.03
2018-10-11T04:18:38.661Z,9.02
2018-10-11T04:21:07.741Z,8.97
2018-10-11T04:23:36.813Z,8.90
2018-10-11T04:26:05.680Z,8.83
2018-10-11T04:28:34.564Z,8.76
2018-10-11T04:31:03.305Z,8.67
2018-10-11T04:33:32.274Z,8.56
2018-10-11T04:36:01.106Z,8.47
2018-10-11T04:38:30.045Z,8.35
2018-10-11T04:40:58.919Z,8.19
2018-10-11T04:43:27.536Z,8.09
2018-10-11T04:45:56.245Z,7.96
2018-10-11T04:48:25.202Z,7.86
2018-10-11T04:50:53.895Z,7.76
2018-10-11T04:53:22.586Z,7.65
2018-10-11T04:55:51.237Z,7.56
2018-10-11T04:58:20.496Z,7.48
2018-10-11T05:00:49.297Z,7.41
2018-10-11T05:03:18.035Z,7.31
2018-10-11T05:05:46.872Z,7.24
2018-10-11T05:08:15.644Z,7.18
2018-10-11T05:10:45.127Z,7.14
2018-10-11T05:13:14.421Z,7.05
2018-10-11T05:15:44.049Z,7.01
2018-10-11T05:18:15.587Z,6.96
2018-10-11T05:20:44.316Z,6.92
2018-10-11T05:23:13.113Z,6.88
2018-10-11T05:25:41.876Z,6.69
2018-10-11T05:28:10.703Z,6.81
2018-10-11T05:30:44.023Z,6.80
2018-10-11T05:33:13.167Z,6.76
2018-10-11T05:35:42.168Z,6.74
2018-10-11T05:38:11.122Z,6.70
2018-10-11T05:40:40.329Z,6.67
2018-10-11T05:43:09.275Z,6.64
2018-10-11T05:45:38.572Z,6.58
2018-10-11T05:48:07.462Z,6.54
2018-10-11T05:50:36.459Z,6.57
2018-10-11T05:53:05.527Z,6.63
2018-10-11T05:55:34.547Z,6.76
2018-10-11T05:58:03.542Z,7.01
2018-10-11T06:00:32.639Z,7.28
2018-10-11T06:03:03.933Z,7.54
2018-10-11T06:08:08.739Z,8.00
2018-10-11T06:10:41.252Z,8.08
2018-10-11T06:13:10.977Z,8.47
2018-10-11T06:15:40.338Z,8.72
2018-10-11T06:18:09.364Z,8.96
2018-10-11T06:20:38.345Z,9.18
2018-10-11T06:23:07.319Z,9.39
2018-10-11T06:25:36.314Z,9.63
2018-10-11T06:28:05.364Z,9.92
2018-10-11T06:30:35.574Z,10.25
2018-10-11T06:33:04.682Z,10.59
2018-10-11T06:35:34.013Z,10.75
2018-10-11T06:38:03.644Z,10.92
2018-10-11T06:40:33.862Z,11.20
2018-10-11T06:43:02.905Z,11.50
2018-10-11T06:45:32.063Z,11.84
2018-10-11T06:48:02.586Z,12.25
2018-10-11T06:50:31.683Z,12.70
2018-10-11T06:53:00.913Z,13.29
2018-10-11T06:55:30.092Z,14.24
2018-10-11T06:57:59.285Z,14.30
2018-10-11T07:00:34.727Z,15.35
2018-10-11T07:03:03.839Z,17.30
2018-10-11T07:05:32.771Z,18.72
2018-10-11T07:08:02.151Z,19.88
2018-10-11T07:10:31.213Z,21.06
2018-10-11T07:13:00.521Z,21.80
2018-10-11T07:15:29.318Z,23.00
2018-10-11T07:17:58.671Z,23.78
2018-10-11T07:20:27.983Z,24.24
2018-10-11T07:22:56.912Z,24.86
2018-10-11T07:25:25.944Z,25.62
2018-10-11T07:27:55.328Z,26.09
2018-10-11T07:30:24.309Z,26.64
2018-10-11T07:32:53.218Z,26.97
2018-10-11T07:35:22.228Z,27.00
2018-10-11T07:37:51.018Z,27.09
2018-10-11T07:40:20.058Z,27.26
2018-10-11T07:42:49.056Z,26.70
2018-10-11T07:45:18.103Z,23.34
2018-10-11T07:47:47.102Z,21.96
2018-10-11T07:50:16.085Z,24.04
2018-10-11T07:52:45.210Z,25.57
2018-10-11T07:55:14.224Z,27.12
2018-10-11T07:57:43.035Z,27.65
2018-10-11T08:00:13.364Z,28.23
2018-10-11T08:02:43.443Z,28.81
2018-10-11T08:05:12.939Z,29.36
2018-10-11T08:07:41.870Z,29.61
2018-10-11T08:10:10.925Z,29.65
2018-10-11T08:12:39.974Z,29.41
2018-10-11T08:15:08.750Z,30.15
2018-10-11T08:17:38.242Z,31.08
2018-10-11T08:20:07.019Z,31.23
2018-10-11T08:22:35.959Z,31.42
2018-10-11T08:25:05.155Z,31.74
2018-10-11T08:27:34.048Z,30.66
2018-10-11T08:30:03.041Z,28.38
2018-10-11T08:32:32.132Z,29.30
2018-10-11T08:35:00.926Z,29.72
2018-10-11T08:37:30.035Z,30.28
2018-10-11T08:39:58.863Z,31.08
2018-10-11T08:42:27.827Z,29.37
2018-10-11T08:44:56.718Z,29.74
2018-10-11T08:47:25.578Z,30.82
2018-10-11T08:49:54.494Z,31.39
2018-10-11T08:52:23.689Z,31.73
2018-10-11T08:54:53.328Z,32.01
2018-10-11T08:57:22.884Z,30.78
2018-10-11T08:59:52.003Z,30.91
2018-10-11T09:02:20.756Z,31.62
2018-10-11T09:04:49.787Z,28.47
2018-10-11T09:07:18.846Z,25.83
2018-10-11T09:09:53.439Z,27.28
2018-10-11T09:12:16.780Z,28.50
2018-10-11T09:14:45.527Z,30.31
2018-10-11T09:17:15.043Z,31.15
2018-10-11T09:19:44.282Z,31.22
2018-10-11T09:22:14.341Z,30.86
2018-10-11T09:24:43.623Z,29.70
2018-10-11T09:27:14.212Z,28.90
2018-10-11T09:29:43.360Z,27.46
2018-10-11T09:32:12.125Z,27.41
2018-10-11T09:34:41.207Z,29.13
2018-10-11T09:37:10.329Z,30.30
2018-10-11T09:39:39.156Z,29.17
2018-10-11T09:42:08.079Z,28.34
2018-10-11T09:44:36.863Z,24.88
2018-10-11T09:47:05.749Z,22.33
2018-10-11T09:49:34.834Z,20.52
2018-10-11T09:52:03.955Z,19.82
2018-10-11T09:54:33.027Z,18.94
2018-10-11T09:57:35.514Z,18.69
2018-10-11T10:00:09.351Z,23.21
2018-10-11T10:02:38.305Z,21.02
2018-10-11T10:05:07.303Z,19.20
2018-10-11T10:07:36.347Z,22.08
2018-10-11T10:10:05.983Z,25.70
2018-10-11T10:12:34.923Z,28.43
2018-10-11T10:15:04.155Z,30.94
2018-10-11T10:17:33.141Z,32.50
2018-10-11T10:20:02.301Z,32.87
2018-10-11T10:22:31.952Z,33.36
2018-10-11T10:25:01.235Z,34.83
2018-10-11T10:27:30.550Z,34.95
2018-10-11T10:29:59.683Z,34.52
2018-10-11T10:32:28.961Z,35.20
2018-10-11T10:34:58.216Z,35.43
2018-10-11T10:37:27.894Z,31.62
2018-10-11T10:39:56.950Z,30.58
2018-10-11T10:42:26.267Z,28.61
2018-10-11T10:44:55.537Z,30.95
2018-10-11T10:47:24.854Z,29.99
2018-10-11T10:49:53.811Z,31.48
2018-10-11T10:52:22.834Z,33.05
2018-10-11T10:54:51.988Z,32.41
2018-10-11T10:57:20.848Z,33.71
2018-10-11T10:59:49.763Z,33.90
2018-10-11T11:02:18.810Z,31.63
2018-10-11T11:04:47.549Z,31.85
2018-10-11T11:07:16.619Z,32.14
2018-10-11T11:09:45.383Z,29.64
2018-10-11T11:12:14.366Z,27.59
2018-10-11T11:14:43.220Z,29.65
2018-10-11T11:17:12.275Z,31.43
2018-10-11T11:19:41.254Z,32.90
2018-10-11T11:22:10.257Z,33.18
2018-10-11T11:24:39.318Z,31.30
2018-10-11T11:27:08.042Z,29.14
2018-10-11T11:29:36.774Z,27.40
2018-10-11T11:32:05.446Z,26.19
2018-10-11T11:34:34.347Z,25.28
2018-10-11T11:37:03.319Z,24.68
2018-10-11T11:39:32.198Z,24.32
2018-10-11T11:42:01.239Z,23.73
2018-10-11T11:44:30.098Z,23.05
2018-10-11T11:46:59.183Z,22.32
2018-10-11T11:49:28.279Z,22.13
2018-10-11T11:51:57.174Z,22.79
2018-10-11T11:54:26.609Z,24.10
2018-10-11T11:56:55.592Z,22.91
2018-10-11T11:59:24.465Z,20.97
2018-10-11T12:01:53.385Z,20.11
2018-10-11T12:04:22.102Z,19.86
2018-10-11T12:06:50.912Z,19.72
2018-10-11T12:09:19.645Z,21.45
2018-10-11T12:11:48.939Z,21.71
2018-10-11T12:14:17.964Z,21.75
2018-10-11T12:16:47.112Z,23.36
2018-10-11T12:19:16.247Z,25.32
2018-10-11T12:21:45.231Z,27.28
2018-10-11T12:24:14.391Z,27.69
2018-10-11T12:26:43.075Z,28.05
2018-10-11T12:29:12.080Z,28.15
2018-10-11T12:31:41.105Z,28.77
2018-10-11T12:34:10.431Z,29.23
2018-10-11T12:36:39.510Z,27.23
2018-10-11T12:39:09.588Z,25.59
2018-10-11T12:41:39.089Z,24.04
2018-10-11T12:44:08.167Z,22.59
2018-10-11T12:46:38.164Z,21.29
2018-10-11T12:49:06.107Z,20.51
2018-10-11T12:51:35.102Z,19.92
2018-10-11T12:54:04.185Z,19.56
2018-10-11T12:56:33.613Z,19.11
2018-10-11T12:59:02.587Z,18.61
2018-10-11T13:01:31.309Z,18.48
2018-10-11T13:04:00.255Z,17.88
2018-10-11T13:06:29.477Z,17.74
2018-10-11T13:08:58.519Z,17.36
2018-10-11T13:11:27.527Z,17.44
2018-10-11T13:13:56.507Z,17.24
2018-10-11T13:16:25.556Z,17.10
2018-10-11T13:18:54.404Z,16.59
2018-10-11T13:21:23.592Z,16.33
2018-10-11T13:23:52.284Z,16.34
2018-10-11T13:26:21.290Z,16.27
2018-10-11T13:28:50.225Z,16.41
2018-10-11T13:31:19.586Z,16.43
2018-10-11T13:33:51.819Z,16.55
2018-10-11T13:36:17.507Z,16.34
2018-10-11T13:38:46.415Z,15.23
2018-10-11T13:41:15.476Z,16.20
2018-10-11T13:43:44.508Z,16.04
2018-10-11T13:46:13.645Z,15.93
2018-10-11T13:48:42.513Z,15.70
2018-10-11T13:51:11.552Z,15.47
2018-10-11T13:53:40.363Z,15.48
2018-10-11T13:56:09.527Z,15.66
2018-10-11T13:58:38.268Z,15.75
2018-10-11T14:01:07.661Z,15.76
2018-10-11T14:03:36.592Z,15.88
2018-10-11T14:06:05.665Z,15.95
2018-10-11T14:08:34.754Z,15.94
2018-10-11T14:11:03.866Z,15.93
2018-10-11T14:13:33.247Z,15.81
2018-10-11T14:16:02.385Z,15.71
2018-10-11T14:18:31.134Z,15.64
2018-10-11T14:21:00.481Z,15.58
2018-10-11T14:23:29.712Z,15.53
2018-10-11T14:25:58.641Z,15.43
2018-10-11T14:28:27.908Z,15.33
2018-10-11T14:30:57.250Z,15.22
2018-10-11T14:33:26.305Z,15.11
2018-10-11T14:35:55.279Z,14.94
2018-10-11T14:38:24.195Z,14.79
2018-10-11T14:40:53.336Z,14.67
2018-10-11T14:43:22.253Z,14.53
2018-10-11T14:45:51.096Z,14.44
2018-10-11T14:48:19.917Z,14.17
2018-10-11T14:50:48.771Z,14.23
2018-10-11T14:53:17.801Z,14.12
2018-10-11T14:55:46.716Z,14.03
2018-10-11T14:58:15.802Z,13.90
2018-10-11T15:00:44.741Z,13.80
2018-10-11T15:03:13.601Z,13.77
2018-10-11T15:05:42.829Z,13.70
2018-10-11T15:08:11.510Z,13.63
2018-10-11T15:10:40.481Z,13.56
2018-10-11T15:13:09.582Z,13.47
2018-10-11T15:15:38.703Z,13.44
2018-10-11T15:18:38.851Z,13.38
2018-10-11T15:21:07.963Z,13.25
2018-10-11T15:23:36.952Z,13.17
2018-10-11T15:26:05.946Z,13.09
2018-10-11T15:28:35.064Z,12.97
2018-10-11T15:31:03.902Z,12.85
2018-10-11T15:33:32.583Z,12.79
2018-10-11T15:36:01.837Z,12.73
2018-10-11T15:38:30.894Z,12.68
2018-10-11T15:41:00.182Z,12.63
2018-10-11T15:43:29.496Z,12.61
2018-10-11T15:45:58.612Z,12.59
2018-10-11T15:48:27.828Z,12.54
2018-10-11T15:50:56.956Z,12.49
2018-10-11T15:53:25.804Z,12.46
2018-10-11T15:55:54.613Z,12.41
2018-10-11T15:58:23.511Z,12.32
2018-10-11T16:00:52.258Z,12.23
2018-10-11T16:03:21.042Z,12.16
2018-10-11T16:05:49.987Z,12.07
2018-10-11T16:08:19.056Z,12.00
2018-10-11T16:10:48.448Z,11.95
2018-10-11T16:13:17.079Z,11.89
2018-10-11T16:15:45.936Z,11.84
2018-10-11T16:18:15.013Z,11.79
2018-10-11T16:20:43.962Z,11.72
2018-10-11T16:23:12.974Z,11.65
2018-10-11T16:25:41.823Z,11.56
2018-10-11T16:28:10.785Z,11.51
2018-10-11T16:30:39.794Z,11.45
2018-10-11T16:33:09.248Z,11.41
2018-10-11T16:35:38.297Z,11.37
2018-10-11T16:38:07.129Z,11.31
2018-10-11T16:40:36.062Z,11.22
2018-10-11T16:43:05.329Z,11.17
2018-10-11T16:45:34.308Z,11.12
2018-10-11T16:48:03.727Z,11.00
2018-10-11T16:50:32.915Z,10.92
2018-10-11T16:53:02.336Z,10.86
2018-10-11T16:55:31.430Z,10.74
2018-10-11T16:58:00.410Z,10.62
2018-10-11T17:00:29.468Z,10.52
2018-10-11T17:02:58.577Z,10.44
2018-10-11T17:05:27.921Z,10.46
2018-10-11T17:07:57.021Z,10.44
2018-10-11T17:10:26.072Z,10.44
2018-10-11T17:12:55.072Z,10.42
2018-10-11T17:15:24.195Z,10.45
2018-10-11T17:17:53.208Z,10.47
2018-10-11T17:20:22.508Z,10.46
2018-10-11T17:22:51.499Z,10.42
2018-10-11T17:25:20.833Z,10.37
2018-10-11T17:27:49.900Z,10.29
2018-10-11T17:30:19.163Z,10.24
2018-10-11T17:32:48.486Z,10.17
2018-10-11T17:35:17.633Z,10.13
2018-10-11T17:37:46.593Z,10.10
2018-10-11T17:40:15.746Z,10.00
2018-10-11T17:42:44.994Z,9.94
2018-10-11T17:45:13.998Z,9.91
2018-10-11T17:47:42.686Z,9.87
2018-10-11T17:50:11.906Z,9.86
2018-10-11T17:52:40.981Z,9.85
2018-10-11T17:55:10.071Z,9.80
2018-10-11T17:57:39.043Z,9.75
2018-10-11T18:00:08.269Z,9.79
2018-10-11T18:02:37.311Z,9.81
2018-10-11T18:05:06.830Z,9.84
2018-10-11T18:07:36.101Z,9.85
2018-10-11T18:10:05.694Z,9.87
2018-10-11T18:12:34.857Z,9.79
2018-10-11T18:15:04.399Z,9.86
2018-10-11T18:17:33.707Z,9.92
2018-10-11T18:20:02.770Z,9.99
2018-10-11T18:22:32.203Z,10.03
2018-10-11T18:25:01.402Z,10.08
2018-10-11T18:27:36.790Z,10.15
2018-10-11T18:30:06.802Z,10.23
2018-10-11T18:32:36.409Z,10.21
2018-10-11T18:35:05.915Z,10.22
2018-10-11T18:37:35.072Z,10.17
2018-10-11T18:40:04.069Z,10.23
2018-10-11T18:42:33.522Z,10.23
2018-10-11T18:45:02.781Z,10.28
2018-10-11T18:47:31.999Z,10.36
2018-10-11T18:50:01.706Z,10.33
2018-10-11T18:52:31.029Z,10.29
2018-10-11T18:54:59.868Z,10.27
2018-10-11T18:57:28.870Z,10.32
2018-10-11T18:59:57.910Z,10.27
2018-10-11T19:02:26.880Z,10.30
2018-10-11T19:04:55.913Z,10.26
2018-10-11T19:07:25.024Z,10.32
2018-10-11T19:09:53.961Z,10.35
2018-10-11T19:12:22.921Z,10.29
2018-10-11T19:14:52.817Z,10.24
2018-10-11T19:17:23.120Z,10.12
2018-10-11T19:19:53.454Z,10.02
2018-10-11T19:22:23.527Z,10.05
2018-10-11T19:24:53.971Z,10.06
2018-10-11T19:27:23.013Z,10.02
2018-10-11T19:29:53.200Z,10.04
2018-10-11T19:32:23.157Z,10.04
2018-10-11T19:34:52.458Z,10.04
2018-10-11T19:37:22.691Z,9.98
2018-10-11T19:39:53.299Z,10.01
2018-10-11T19:42:23.261Z,10.02
2018-10-11T19:44:52.411Z,10.04
2018-10-11T19:47:22.027Z,10.11
2018-10-11T19:49:51.749Z,10.09
2018-10-11T19:52:21.151Z,10.14
2018-10-11T19:54:49.924Z,10.16
2018-10-11T19:57:18.797Z,10.04
2018-10-11T19:59:48.023Z,9.95
2018-10-11T20:02:17.506Z,9.98
2018-10-11T20:04:47.136Z,10.00
2018-10-11T20:07:16.909Z,10.06
2018-10-11T20:09:46.376Z,10.13
2018-10-11T20:12:15.703Z,10.18
2018-10-11T20:14:45.337Z,10.20
2018-10-11T20:17:14.541Z,10.23
2018-10-11T20:19:43.951Z,10.18
2018-10-11T20:22:14.448Z,10.22
2018-10-11T20:24:45.103Z,10.26
2018-10-11T20:27:14.723Z,10.27
2018-10-11T20:29:43.836Z,10.21
2018-10-11T20:32:13.283Z,10.24
2018-10-11T20:34:43.131Z,10.23
2018-10-11T20:37:12.501Z,10.20
2018-10-11T20:39:42.842Z,10.23
2018-10-11T20:42:12.037Z,10.17
2018-10-11T20:45:12.467Z,10.17
2018-10-11T20:47:41.632Z,10.11
2018-10-11T20:50:10.630Z,10.10
2018-10-11T20:52:39.622Z,10.03
2018-10-11T20:55:08.725Z,9.89
2018-10-11T20:57:37.890Z,10.08
2018-10-11T21:00:07.733Z,10.12
2018-10-11T21:02:37.283Z,10.06
2018-10-11T21:05:06.774Z,10.02
2018-10-11T21:07:36.681Z,9.98
2018-10-11T21:10:06.792Z,10.04
2018-10-11T21:12:36.846Z,10.04
2018-10-11T21:15:06.122Z,10.00
2018-10-11T21:17:37.163Z,9.98
2018-10-11T21:20:08.233Z,9.93
2018-10-11T21:22:37.960Z,9.86
2018-10-11T21:25:07.170Z,9.87
2018-10-11T21:27:36.564Z,9.85
2018-10-11T21:30:05.814Z,9.87
2018-10-11T21:32:35.883Z,9.94
2018-10-11T21:35:05.840Z,9.97
2018-10-11T21:37:35.886Z,10.04
2018-10-11T21:40:05.562Z,10.08
2018-10-11T21:42:35.685Z,10.12
2018-10-11T21:45:05.766Z,10.09
2018-10-11T21:47:34.869Z,10.08
2018-10-11T21:50:04.783Z,10.08
2018-10-11T21:52:35.388Z,10.11
2018-10-11T21:55:05.201Z,10.08
2018-10-11T21:57:35.401Z,10.03
2018-10-11T22:00:05.903Z,9.98
2018-10-11T22:02:35.683Z,9.92
2018-10-11T22:05:04.832Z,9.87
2018-10-11T22:07:33.800Z,9.88
2018-10-11T22:10:02.755Z,9.88
2018-10-11T22:12:31.888Z,9.87
2018-10-11T22:15:01.189Z,9.83
2018-10-11T22:17:30.185Z,9.85
2018-10-11T22:19:59.451Z,9.90
2018-10-11T22:22:28.776Z,9.79
2018-10-11T22:24:57.645Z,9.76
2018-10-11T22:27:26.746Z,9.75
2018-10-11T22:29:55.671Z,9.66
2018-10-11T22:32:24.467Z,9.63
2018-10-11T22:34:53.279Z,9.63
2018-10-11T22:37:22.217Z,9.65
2018-10-11T22:39:51.224Z,9.56
2018-10-11T22:42:20.091Z,9.44
2018-10-11T22:44:49.194Z,9.35
2018-10-11T22:47:18.214Z,9.33
2018-10-11T22:49:47.171Z,9.38
2018-10-11T22:52:16.239Z,9.45
2018-10-11T22:54:45.252Z,9.46
2018-10-11T22:57:14.069Z,9.46
2018-10-11T22:59:42.818Z,9.51
2018-10-11T23:02:11.513Z,9.49
2018-10-11T23:04:40.603Z,9.48
2018-10-11T23:07:09.837Z,9.47
2018-10-11T23:09:39.074Z,9.43
2018-10-11T23:12:08.223Z,9.43
2018-10-11T23:14:37.250Z,9.43
2018-10-11T23:17:06.022Z,9.40
2018-10-11T23:19:34.975Z,9.33
2018-10-11T23:22:03.903Z,9.26
2018-10-11T23:24:32.926Z,9.28
2018-10-11T23:27:01.840Z,9.32
2018-10-11T23:29:30.758Z,9.34
2018-10-11T23:31:59.917Z,9.37
2018-10-11T23:34:28.688Z,9.35
2018-10-11T23:36:57.430Z,9.40
2018-10-11T23:39:26.490Z,9.46
2018-10-11T23:41:55.391Z,9.46
2018-10-11T23:44:24.101Z,9.50
2018-10-11T23:46:52.988Z,9.57
2018-10-11T23:49:22.007Z,9.62
2018-10-11T23:51:50.858Z,9.67
2018-10-11T23:54:19.855Z,9.70
2018-10-11T23:56:48.769Z,9.69
2018-10-11T23:59:17.551Z,9.75
